sensor_id;sensor_type;location;lat;lon;timestamp;P1;P2;P0
62778;PMS7003;48821;48.796;2.396;2022-07-23T06:01:17;28.25;22.75;15.25
62778;PMS7003;48821;48.796;2.396;2022-07-23T06:02:28;24.75;19.50;13.25
62778;PMS7003;48821;48.796;2.396;2022-07-23T06:03:38;25.75;20.75;14.75
62778;PMS7003;48821;48.796;2.396;2022-07-23T06:04:49;25.75;19.50;11.75
62778;PMS7003;48821;48.796;2.396;2022-07-23T06:05:59;24.25;20.00;13.75
62778;PMS7003;48821;48.796;2.396;2022-07-23T06:07:09;16.75;16.75;14.50
62778;PMS7003;48821;48.796;2.396;2022-07-23T06:08:20;27.50;20.25;12.25
62778;PMS7003;48821;48.796;2.396;2022-07-23T06:09:30;27.75;24.00;15.75
62778;PMS7003;48821;48.796;2.396;2022-07-23T06:10:40;24.50;21.50;15.50
62778;PMS7003;48821;48.796;2.396;2022-07-23T06:11:51;24.25;21.50;12.25
62778;PMS7003;48821;48.796;2.396;2022-07-23T06:13:01;23.75;20.75;15.75
62778;PMS7003;48821;48.796;2.396;2022-07-23T06:14:12;25.00;24.50;15.75
62778;PMS7003;48821;48.796;2.396;2022-07-23T06:15:22;24.25;21.25;13.00
62778;PMS7003;48821;48.796;2.396;2022-07-23T06:16:33;28.00;23.75;15.75
62778;PMS7003;48821;48.796;2.396;2022-07-23T06:17:43;30.25;23.25;14.00
62778;PMS7003;48821;48.796;2.396;2022-07-23T06:18:53;30.50;26.00;17.50
62778;PMS7003;48821;48.796;2.396;2022-07-23T06:20:05;31.50;27.25;17.50
62778;PMS7003;48821;48.796;2.396;2022-07-23T06:21:16;29.00;25.75;15.75
62778;PMS7003;48821;48.796;2.396;2022-07-23T06:22:26;28.00;25.25;17.00
62778;PMS7003;48821;48.796;2.396;2022-07-23T06:23:37;36.25;29.00;17.00
62778;PMS7003;48821;48.796;2.396;2022-07-23T06:24:47;31.25;30.00;18.50
62778;PMS7003;48821;48.796;2.396;2022-07-23T06:25:59;23.50;22.50;15.75
62778;PMS7003;48821;48.796;2.396;2022-07-23T06:27:09;37.25;31.25;19.25
62778;PMS7003;48821;48.796;2.396;2022-07-23T06:28:19;36.00;30.75;19.00
62778;PMS7003;48821;48.796;2.396;2022-07-23T06:29:30;31.25;27.75;17.50
62778;PMS7003;48821;48.796;2.396;2022-07-23T06:30:40;33.00;28.50;19.50
62778;PMS7003;48821;48.796;2.396;2022-07-23T06:31:51;40.50;31.00;20.00
62778;PMS7003;48821;48.796;2.396;2022-07-23T06:33:01;34.75;31.00;19.25
62778;PMS7003;48821;48.796;2.396;2022-07-23T06:34:11;34.75;26.75;17.25
62778;PMS7003;48821;48.796;2.396;2022-07-23T06:35:22;33.50;28.00;19.50
62778;PMS7003;48821;48.796;2.396;2022-07-23T06:36:32;37.25;24.50;16.50
62778;PMS7003;48821;48.796;2.396;2022-07-23T06:37:42;38.75;31.00;19.50
62778;PMS7003;48821;48.796;2.396;2022-07-23T06:38:53;33.75;30.75;18.25
62778;PMS7003;48821;48.796;2.396;2022-07-23T06:40:03;37.00;32.00;20.25
62778;PMS7003;48821;48.796;2.396;2022-07-23T06:41:14;37.75;30.00;17.25
62778;PMS7003;48821;48.796;2.396;2022-07-23T06:42:25;36.00;28.25;19.50
62778;PMS7003;48821;48.796;2.396;2022-07-23T06:43:35;35.75;29.75;19.00
62778;PMS7003;48821;48.796;2.396;2022-07-23T06:44:45;39.75;30.00;19.00
62778;PMS7003;48821;48.796;2.396;2022-07-23T06:45:56;42.75;31.50;21.75
62778;PMS7003;48821;48.796;2.396;2022-07-23T06:47:06;37.00;33.50;19.50
62778;PMS7003;48821;48.796;2.396;2022-07-23T06:48:17;45.25;34.75;20.50
62778;PMS7003;48821;48.796;2.396;2022-07-23T06:49:27;41.25;33.75;19.50
62778;PMS7003;48821;48.796;2.396;2022-07-23T06:50:37;39.50;32.75;20.50
62778;PMS7003;48821;48.796;2.396;2022-07-23T06:51:47;34.25;25.00;14.00
62778;PMS7003;48821;48.796;2.396;2022-07-23T06:52:58;40.50;31.00;20.00
62778;PMS7003;48821;48.796;2.396;2022-07-23T06:54:08;38.50;32.75;19.75
62778;PMS7003;48821;48.796;2.396;2022-07-23T06:55:19;42.00;33.50;19.75
62778;PMS7003;48821;48.796;2.396;2022-07-23T06:56:29;40.00;32.75;20.50
62778;PMS7003;48821;48.796;2.396;2022-07-23T06:57:39;37.50;32.50;20.50
62778;PMS7003;48821;48.796;2.396;2022-07-23T06:58:50;42.00;33.00;20.00
62778;PMS7003;48821;48.796;2.396;2022-07-23T07:00:00;43.50;35.75;21.25
62778;PMS7003;48821;48.796;2.396;2022-07-23T07:01:11;27.75;24.50;17.25
62778;PMS7003;48821;48.796;2.396;2022-07-23T07:02:21;22.50;22.00;14.50
62778;PMS7003;48821;48.796;2.396;2022-07-23T07:03:31;38.25;32.75;20.50
62778;PMS7003;48821;48.796;2.396;2022-07-23T07:04:42;34.75;29.25;19.50
62778;PMS7003;48821;48.796;2.396;2022-07-23T07:05:52;32.25;30.50;16.50
62778;PMS7003;48821;48.796;2.396;2022-07-23T07:07:03;36.50;33.25;19.50
62778;PMS7003;48821;48.796;2.396;2022-07-23T07:08:13;45.75;35.25;22.50
62778;PMS7003;48821;48.796;2.396;2022-07-23T07:09:23;40.50;33.50;20.50
62778;PMS7003;48821;48.796;2.396;2022-07-23T07:10:34;44.75;36.50;23.25
62778;PMS7003;48821;48.796;2.396;2022-07-23T07:11:44;44.50;34.75;21.00
62778;PMS7003;48821;48.796;2.396;2022-07-23T07:12:54;39.00;32.75;20.75
62778;PMS7003;48821;48.796;2.396;2022-07-23T07:14:05;38.25;31.50;19.50
62778;PMS7003;48821;48.796;2.396;2022-07-23T07:15:16;39.25;33.50;21.00
62778;PMS7003;48821;48.796;2.396;2022-07-23T07:16:26;47.00;36.50;21.00
62778;PMS7003;48821;48.796;2.396;2022-07-23T07:17:37;44.25;35.25;21.00
62778;PMS7003;48821;48.796;2.396;2022-07-23T07:18:47;44.75;37.25;21.50
62778;PMS7003;48821;48.796;2.396;2022-07-23T07:19:58;41.25;33.50;21.50
62778;PMS7003;48821;48.796;2.396;2022-07-23T07:21:08;34.25;28.50;18.50
62778;PMS7003;48821;48.796;2.396;2022-07-23T07:22:19;42.00;33.75;19.75
62778;PMS7003;48821;48.796;2.396;2022-07-23T07:23:29;36.25;32.25;19.75
62778;PMS7003;48821;48.796;2.396;2022-07-23T07:24:39;40.50;33.75;21.75
62778;PMS7003;48821;48.796;2.396;2022-07-23T07:25:50;47.50;37.75;23.25
62778;PMS7003;48821;48.796;2.396;2022-07-23T07:27:00;38.50;33.50;22.25
62778;PMS7003;48821;48.796;2.396;2022-07-23T07:28:10;40.50;34.50;22.25
62778;PMS7003;48821;48.796;2.396;2022-07-23T07:29:21;35.25;31.50;18.75
62778;PMS7003;48821;48.796;2.396;2022-07-23T07:30:31;43.00;33.50;18.75
62778;PMS7003;48821;48.796;2.396;2022-07-23T07:31:41;40.00;31.50;20.25
62778;PMS7003;48821;48.796;2.396;2022-07-23T07:32:52;44.75;35.75;22.75
62778;PMS7003;48821;48.796;2.396;2022-07-23T07:34:02;33.75;31.25;18.50
62778;PMS7003;48821;48.796;2.396;2022-07-23T07:35:13;34.00;30.50;18.75
62778;PMS7003;48821;48.796;2.396;2022-07-23T07:36:23;43.25;33.50;20.25
62778;PMS7003;48821;48.796;2.396;2022-07-23T07:37:34;50.25;40.25;22.75
62778;PMS7003;48821;48.796;2.396;2022-07-23T07:38:45;41.75;33.75;22.50
62778;PMS7003;48821;48.796;2.396;2022-07-23T07:39:55;43.75;35.50;22.25
62778;PMS7003;48821;48.796;2.396;2022-07-23T07:41:05;39.00;34.75;21.75
62778;PMS7003;48821;48.796;2.396;2022-07-23T07:42:17;48.25;37.00;22.50
62778;PMS7003;48821;48.796;2.396;2022-07-23T07:43:27;39.00;30.75;20.00
62778;PMS7003;48821;48.796;2.396;2022-07-23T07:44:38;46.75;36.00;22.75
62778;PMS7003;48821;48.796;2.396;2022-07-23T07:45:48;42.00;33.75;19.75
62778;PMS7003;48821;48.796;2.396;2022-07-23T07:46:59;50.00;40.75;24.00
62778;PMS7003;48821;48.796;2.396;2022-07-23T07:48:09;47.50;36.50;22.00
62778;PMS7003;48821;48.796;2.396;2022-07-23T07:49:19;45.75;36.25;22.75
62778;PMS7003;48821;48.796;2.396;2022-07-23T07:50:30;44.25;37.00;22.00
62778;PMS7003;48821;48.796;2.396;2022-07-23T07:51:40;41.75;34.00;20.25
62778;PMS7003;48821;48.796;2.396;2022-07-23T07:52:50;45.75;37.25;22.75
62778;PMS7003;48821;48.796;2.396;2022-07-23T07:54:01;48.25;37.25;23.00
62778;PMS7003;48821;48.796;2.396;2022-07-23T07:55:11;42.25;34.00;18.50
62778;PMS7003;48821;48.796;2.396;2022-07-23T07:56:22;47.75;37.75;23.25
62778;PMS7003;48821;48.796;2.396;2022-07-23T07:57:32;41.00;34.75;21.00
62778;PMS7003;48821;48.796;2.396;2022-07-23T07:58:43;48.00;37.25;22.50
62778;PMS7003;48821;48.796;2.396;2022-07-23T07:59:53;41.00;34.25;18.50
62778;PMS7003;48821;48.796;2.396;2022-07-23T08:01:04;49.50;37.00;23.25
62778;PMS7003;48821;48.796;2.396;2022-07-23T08:02:14;42.75;35.75;22.75
62778;PMS7003;48821;48.796;2.396;2022-07-23T08:03:24;45.25;34.25;22.00
62778;PMS7003;48821;48.796;2.396;2022-07-23T08:04:35;46.75;35.00;23.25
62778;PMS7003;48821;48.796;2.396;2022-07-23T08:05:45;40.25;35.25;20.25
62778;PMS7003;48821;48.796;2.396;2022-07-23T08:06:55;42.50;31.50;15.25
62778;PMS7003;48821;48.796;2.396;2022-07-23T08:08:06;47.25;37.00;24.25
62778;PMS7003;48821;48.796;2.396;2022-07-23T08:09:16;51.75;38.50;23.00
62778;PMS7003;48821;48.796;2.396;2022-07-23T08:10:28;47.25;38.00;22.50
62778;PMS7003;48821;48.796;2.396;2022-07-23T08:11:38;45.25;35.75;21.25
62778;PMS7003;48821;48.796;2.396;2022-07-23T08:12:50;45.75;34.75;21.75
62778;PMS7003;48821;48.796;2.396;2022-07-23T08:14:03;45.25;36.75;22.25
62778;PMS7003;48821;48.796;2.396;2022-07-23T08:15:14;40.50;32.75;20.25
62778;PMS7003;48821;48.796;2.396;2022-07-23T08:16:26;46.25;36.75;20.25
62778;PMS7003;48821;48.796;2.396;2022-07-23T08:17:37;40.75;33.50;20.75
62778;PMS7003;48821;48.796;2.396;2022-07-23T08:18:47;40.00;33.75;20.25
62778;PMS7003;48821;48.796;2.396;2022-07-23T08:19:58;47.25;37.00;22.25
62778;PMS7003;48821;48.796;2.396;2022-07-23T08:21:08;44.50;34.50;21.75
62778;PMS7003;48821;48.796;2.396;2022-07-23T08:22:18;45.25;36.50;23.25
62778;PMS7003;48821;48.796;2.396;2022-07-23T08:23:29;42.00;32.75;21.25
62778;PMS7003;48821;48.796;2.396;2022-07-23T08:24:39;33.75;28.00;18.50
62778;PMS7003;48821;48.796;2.396;2022-07-23T08:25:49;42.75;33.00;20.75
62778;PMS7003;48821;48.796;2.396;2022-07-23T08:27:00;46.50;36.25;21.25
62778;PMS7003;48821;48.796;2.396;2022-07-23T08:28:10;45.25;35.25;22.50
62778;PMS7003;48821;48.796;2.396;2022-07-23T08:29:22;41.50;33.50;22.25
62778;PMS7003;48821;48.796;2.396;2022-07-23T08:30:33;41.75;34.25;21.00
62778;PMS7003;48821;48.796;2.396;2022-07-23T08:31:44;48.75;37.00;22.00
62778;PMS7003;48821;48.796;2.396;2022-07-23T08:32:56;48.50;38.25;22.25
62778;PMS7003;48821;48.796;2.396;2022-07-23T08:34:14;48.00;35.25;20.50
62778;PMS7003;48821;48.796;2.396;2022-07-23T08:36:37;49.25;36.50;22.50
62778;PMS7003;48821;48.796;2.396;2022-07-23T08:37:48;45.50;35.50;22.50
62778;PMS7003;48821;48.796;2.396;2022-07-23T08:38:59;47.25;34.25;22.50
62778;PMS7003;48821;48.796;2.396;2022-07-23T08:40:12;45.50;37.00;22.25
62778;PMS7003;48821;48.796;2.396;2022-07-23T08:41:22;49.50;37.75;23.00
62778;PMS7003;48821;48.796;2.396;2022-07-23T08:42:33;47.25;36.25;23.25
62778;PMS7003;48821;48.796;2.396;2022-07-23T08:43:48;41.00;34.75;21.00
62778;PMS7003;48821;48.796;2.396;2022-07-23T08:44:58;45.75;36.50;23.00
62778;PMS7003;48821;48.796;2.396;2022-07-23T08:46:08;44.75;35.25;23.00
62778;PMS7003;48821;48.796;2.396;2022-07-23T08:47:19;42.00;33.50;21.75
62778;PMS7003;48821;48.796;2.396;2022-07-23T08:48:30;42.00;34.50;21.75
62778;PMS7003;48821;48.796;2.396;2022-07-23T08:49:43;39.25;33.50;21.75
62778;PMS7003;48821;48.796;2.396;2022-07-23T08:50:56;42.50;31.50;20.50
62778;PMS7003;48821;48.796;2.396;2022-07-23T08:52:08;31.25;29.25;20.25
62778;PMS7003;48821;48.796;2.396;2022-07-23T08:53:19;35.75;31.00;18.25
62778;PMS7003;48821;48.796;2.396;2022-07-23T08:54:34;43.75;34.00;21.75
62778;PMS7003;48821;48.796;2.396;2022-07-23T08:55:45;41.50;32.00;21.75
62778;PMS7003;48821;48.796;2.396;2022-07-23T08:56:56;35.75;31.50;20.25
62778;PMS7003;48821;48.796;2.396;2022-07-23T08:58:07;41.75;33.00;20.75
62778;PMS7003;48821;48.796;2.396;2022-07-23T08:59:17;33.00;27.75;17.00
62778;PMS7003;48821;48.796;2.396;2022-07-23T09:00:27;41.25;34.00;22.50
62778;PMS7003;48821;48.796;2.396;2022-07-23T09:01:39;45.00;34.75;21.00
62778;PMS7003;48821;48.796;2.396;2022-07-23T09:02:50;34.00;30.25;20.25
62778;PMS7003;48821;48.796;2.396;2022-07-23T09:04:01;37.00;31.00;19.50
62778;PMS7003;48821;48.796;2.396;2022-07-23T09:05:13;35.50;30.50;19.50
62778;PMS7003;48821;48.796;2.396;2022-07-23T09:06:25;38.25;32.25;21.50
62778;PMS7003;48821;48.796;2.396;2022-07-23T09:07:35;41.00;34.00;21.25
62778;PMS7003;48821;48.796;2.396;2022-07-23T09:08:45;40.00;32.00;21.50
62778;PMS7003;48821;48.796;2.396;2022-07-23T09:10:07;34.75;29.75;20.50
62778;PMS7003;48821;48.796;2.396;2022-07-23T09:11:20;44.25;33.50;20.25
62778;PMS7003;48821;48.796;2.396;2022-07-23T09:12:30;44.00;35.00;22.00
62778;PMS7003;48821;48.796;2.396;2022-07-23T09:14:53;38.25;30.75;20.25
62778;PMS7003;48821;48.796;2.396;2022-07-23T09:16:25;45.25;33.75;20.50
62778;PMS7003;48821;48.796;2.396;2022-07-23T09:17:37;43.25;35.75;22.25
62778;PMS7003;48821;48.796;2.396;2022-07-23T09:18:51;36.25;31.50;20.50
62778;PMS7003;48821;48.796;2.396;2022-07-23T09:20:12;34.00;29.25;18.00
62778;PMS7003;48821;48.796;2.396;2022-07-23T09:22:34;46.00;36.50;22.25
62778;PMS7003;48821;48.796;2.396;2022-07-23T09:26:18;43.75;33.00;20.75
62778;PMS7003;48821;48.796;2.396;2022-07-23T09:27:50;40.00;32.50;22.25
62778;PMS7003;48821;48.796;2.396;2022-07-23T09:29:18;38.00;30.75;19.75
62778;PMS7003;48821;48.796;2.396;2022-07-23T09:30:30;43.50;34.00;20.00
62778;PMS7003;48821;48.796;2.396;2022-07-23T09:33:09;43.50;35.50;22.00
62778;PMS7003;48821;48.796;2.396;2022-07-23T09:34:22;43.25;34.25;21.50
62778;PMS7003;48821;48.796;2.396;2022-07-23T09:37:11;46.25;34.25;22.25
62778;PMS7003;48821;48.796;2.396;2022-07-23T09:38:24;40.25;33.00;21.75
62778;PMS7003;48821;48.796;2.396;2022-07-23T09:39:35;43.75;36.00;20.50
62778;PMS7003;48821;48.796;2.396;2022-07-23T09:40:46;31.00;30.25;17.75
62778;PMS7003;48821;48.796;2.396;2022-07-23T09:41:57;42.50;35.00;21.00
62778;PMS7003;48821;48.796;2.396;2022-07-23T09:43:27;37.50;32.50;20.25
62778;PMS7003;48821;48.796;2.396;2022-07-23T09:44:45;44.00;34.00;21.00
62778;PMS7003;48821;48.796;2.396;2022-07-23T09:46:17;41.50;33.00;20.00
62778;PMS7003;48821;48.796;2.396;2022-07-23T09:47:31;36.00;31.00;20.25
62778;PMS7003;48821;48.796;2.396;2022-07-23T09:48:42;40.25;32.25;21.50
62778;PMS7003;48821;48.796;2.396;2022-07-23T09:51:09;36.50;32.50;20.00
62778;PMS7003;48821;48.796;2.396;2022-07-23T09:52:25;31.25;26.75;15.00
62778;PMS7003;48821;48.796;2.396;2022-07-23T09:53:37;37.75;30.50;19.50
62778;PMS7003;48821;48.796;2.396;2022-07-23T09:54:47;43.00;35.00;20.00
62778;PMS7003;48821;48.796;2.396;2022-07-23T09:56:08;35.50;30.50;22.25
62778;PMS7003;48821;48.796;2.396;2022-07-23T09:57:20;45.25;32.75;19.75
62778;PMS7003;48821;48.796;2.396;2022-07-23T09:58:31;35.25;32.75;21.25
62778;PMS7003;48821;48.796;2.396;2022-07-23T09:59:42;36.75;32.50;20.25
62778;PMS7003;48821;48.796;2.396;2022-07-23T10:00:54;37.50;30.75;20.25
62778;PMS7003;48821;48.796;2.396;2022-07-23T10:02:11;38.00;32.00;20.25
62778;PMS7003;48821;48.796;2.396;2022-07-23T10:03:25;37.25;30.50;20.00
62778;PMS7003;48821;48.796;2.396;2022-07-23T10:04:36;37.25;30.75;20.00
62778;PMS7003;48821;48.796;2.396;2022-07-23T10:05:46;32.50;30.75;21.00
62778;PMS7003;48821;48.796;2.396;2022-07-23T10:06:58;33.25;27.25;18.00
62778;PMS7003;48821;48.796;2.396;2022-07-23T10:08:11;35.00;30.50;19.00
62778;PMS7003;48821;48.796;2.396;2022-07-23T10:09:32;42.25;32.00;20.00
62778;PMS7003;48821;48.796;2.396;2022-07-23T10:10:47;34.00;32.25;20.75
62778;PMS7003;48821;48.796;2.396;2022-07-23T10:11:59;40.50;32.00;20.00
62778;PMS7003;48821;48.796;2.396;2022-07-23T10:13:31;37.25;30.25;18.75
62778;PMS7003;48821;48.796;2.396;2022-07-23T10:14:56;42.25;34.75;21.00
62778;PMS7003;48821;48.796;2.396;2022-07-23T10:16:07;34.50;30.50;20.50
62778;PMS7003;48821;48.796;2.396;2022-07-23T10:17:18;35.50;30.50;19.75
62778;PMS7003;48821;48.796;2.396;2022-07-23T10:18:29;33.75;30.75;19.25
62778;PMS7003;48821;48.796;2.396;2022-07-23T10:19:40;30.75;28.00;20.00
62778;PMS7003;48821;48.796;2.396;2022-07-23T10:20:51;37.50;30.75;19.00
62778;PMS7003;48821;48.796;2.396;2022-07-23T10:22:03;30.75;26.25;19.25
62778;PMS7003;48821;48.796;2.396;2022-07-23T10:23:37;34.00;29.00;18.00
62778;PMS7003;48821;48.796;2.396;2022-07-23T10:26:27;35.25;31.00;19.25
62778;PMS7003;48821;48.796;2.396;2022-07-23T10:27:54;36.75;31.75;19.50
62778;PMS7003;48821;48.796;2.396;2022-07-23T10:29:19;37.00;32.75;20.75
62778;PMS7003;48821;48.796;2.396;2022-07-23T10:33:02;27.50;26.50;19.00
62778;PMS7003;48821;48.796;2.396;2022-07-23T10:36:29;31.50;27.50;17.25
62778;PMS7003;48821;48.796;2.396;2022-07-23T10:37:49;36.00;32.00;19.50
62778;PMS7003;48821;48.796;2.396;2022-07-23T10:39:05;35.00;32.25;20.00
62778;PMS7003;48821;48.796;2.396;2022-07-23T10:40:22;35.75;31.50;20.50
62778;PMS7003;48821;48.796;2.396;2022-07-23T10:41:34;36.50;31.00;19.00
62778;PMS7003;48821;48.796;2.396;2022-07-23T10:42:46;33.50;29.50;18.75
62778;PMS7003;48821;48.796;2.396;2022-07-23T10:44:07;29.25;24.25;17.00
62778;PMS7003;48821;48.796;2.396;2022-07-23T10:46:59;32.50;30.50;19.50
62778;PMS7003;48821;48.796;2.396;2022-07-23T10:48:30;32.50;30.50;19.50
62778;PMS7003;48821;48.796;2.396;2022-07-23T10:49:41;38.50;31.50;20.00
62778;PMS7003;48821;48.796;2.396;2022-07-23T10:52:24;26.00;24.75;15.25
62778;PMS7003;48821;48.796;2.396;2022-07-23T10:56:13;26.50;25.50;17.75
62778;PMS7003;48821;48.796;2.396;2022-07-23T10:57:25;32.50;26.00;16.25
62778;PMS7003;48821;48.796;2.396;2022-07-23T10:58:46;33.00;29.00;18.50
62778;PMS7003;48821;48.796;2.396;2022-07-23T11:01:34;29.25;26.25;18.75
62778;PMS7003;48821;48.796;2.396;2022-07-23T11:02:52;36.25;28.00;20.00
62778;PMS7003;48821;48.796;2.396;2022-07-23T11:04:04;28.25;25.50;16.75
62778;PMS7003;48821;48.796;2.396;2022-07-23T11:05:18;31.25;28.75;18.50
62778;PMS7003;48821;48.796;2.396;2022-07-23T11:09:28;30.75;26.25;19.50
62778;PMS7003;48821;48.796;2.396;2022-07-23T11:10:40;33.00;27.25;18.75
62778;PMS7003;48821;48.796;2.396;2022-07-23T11:13:47;28.25;26.25;18.25
62778;PMS7003;48821;48.796;2.396;2022-07-23T11:16:15;34.25;30.25;20.00
62778;PMS7003;48821;48.796;2.396;2022-07-23T11:17:26;24.50;23.75;16.00
62778;PMS7003;48821;48.796;2.396;2022-07-23T11:22:33;33.00;29.00;17.50
62778;PMS7003;48821;48.796;2.396;2022-07-23T11:25:07;30.25;27.50;17.25
62778;PMS7003;48821;48.796;2.396;2022-07-23T11:27:47;30.50;25.00;16.50
62778;PMS7003;48821;48.796;2.396;2022-07-23T11:29:37;28.50;25.50;17.25
62778;PMS7003;48821;48.796;2.396;2022-07-23T11:30:38;27.25;24.50;14.50
62778;PMS7003;48821;48.796;2.396;2022-07-23T11:31:55;25.75;25.00;17.00
62778;PMS7003;48821;48.796;2.396;2022-07-23T11:35:40;23.25;18.50;15.25
62778;PMS7003;48821;48.796;2.396;2022-07-23T11:36:52;28.25;26.00;18.00
62778;PMS7003;48821;48.796;2.396;2022-07-23T11:38:06;33.25;27.00;18.00
62778;PMS7003;48821;48.796;2.396;2022-07-23T11:39:28;27.25;25.50;17.25
62778;PMS7003;48821;48.796;2.396;2022-07-23T11:40:39;20.25;19.25;15.00
62778;PMS7003;48821;48.796;2.396;2022-07-23T11:41:50;25.00;23.00;16.00
62778;PMS7003;48821;48.796;2.396;2022-07-23T11:43:03;31.25;25.75;16.75
62778;PMS7003;48821;48.796;2.396;2022-07-23T11:44:35;30.25;27.50;20.25
62778;PMS7003;48821;48.796;2.396;2022-07-23T11:45:48;27.00;23.50;14.50
62778;PMS7003;48821;48.796;2.396;2022-07-23T11:47:10;28.00;24.75;16.00
62778;PMS7003;48821;48.796;2.396;2022-07-23T11:48:23;28.00;21.75;14.75
62778;PMS7003;48821;48.796;2.396;2022-07-23T11:49:35;26.75;25.50;18.50
62778;PMS7003;48821;48.796;2.396;2022-07-23T11:50:46;29.00;27.50;18.75
62778;PMS7003;48821;48.796;2.396;2022-07-23T11:52:07;27.75;26.75;17.00
62778;PMS7003;48821;48.796;2.396;2022-07-23T11:53:24;21.75;21.75;14.50
62778;PMS7003;48821;48.796;2.396;2022-07-23T11:56:10;24.50;21.25;13.00
62778;PMS7003;48821;48.796;2.396;2022-07-23T11:57:24;31.75;28.00;18.00
62778;PMS7003;48821;48.796;2.396;2022-07-23T11:58:39;31.00;27.75;17.00
62778;PMS7003;48821;48.796;2.396;2022-07-23T12:00:10;24.25;24.25;16.00
62778;PMS7003;48821;48.796;2.396;2022-07-23T12:01:26;27.75;25.00;16.75
62778;PMS7003;48821;48.796;2.396;2022-07-23T12:02:40;26.50;22.50;16.25
62778;PMS7003;48821;48.796;2.396;2022-07-23T12:03:55;21.25;17.75;11.50
62778;PMS7003;48821;48.796;2.396;2022-07-23T12:05:05;24.75;23.50;16.75
62778;PMS7003;48821;48.796;2.396;2022-07-23T12:06:16;32.50;29.50;19.25
62778;PMS7003;48821;48.796;2.396;2022-07-23T12:07:31;29.25;26.25;17.75
62778;PMS7003;48821;48.796;2.396;2022-07-23T12:08:43;29.50;26.25;17.75
62778;PMS7003;48821;48.796;2.396;2022-07-23T12:09:54;28.00;26.75;18.25
62778;PMS7003;48821;48.796;2.396;2022-07-23T12:11:06;32.25;28.00;19.00
62778;PMS7003;48821;48.796;2.396;2022-07-23T12:12:16;27.25;25.25;17.00
62778;PMS7003;48821;48.796;2.396;2022-07-23T12:13:27;30.25;27.50;18.00
62778;PMS7003;48821;48.796;2.396;2022-07-23T12:14:46;29.25;27.75;17.50
62778;PMS7003;48821;48.796;2.396;2022-07-23T12:16:00;29.25;28.50;17.50
62778;PMS7003;48821;48.796;2.396;2022-07-23T12:17:11;32.75;28.75;18.25
62778;PMS7003;48821;48.796;2.396;2022-07-23T12:18:24;35.25;28.25;17.25
62778;PMS7003;48821;48.796;2.396;2022-07-23T12:19:36;27.75;21.75;14.00
62778;PMS7003;48821;48.796;2.396;2022-07-23T12:20:54;32.50;30.00;16.75
62778;PMS7003;48821;48.796;2.396;2022-07-23T12:22:10;32.25;26.50;18.00
62778;PMS7003;48821;48.796;2.396;2022-07-23T12:23:22;34.50;28.25;18.25
62778;PMS7003;48821;48.796;2.396;2022-07-23T12:24:53;32.75;29.25;17.00
62778;PMS7003;48821;48.796;2.396;2022-07-23T12:26:12;32.25;26.75;17.25
62778;PMS7003;48821;48.796;2.396;2022-07-23T12:27:23;32.50;30.00;20.00
62778;PMS7003;48821;48.796;2.396;2022-07-23T12:28:34;30.00;27.50;17.50
62778;PMS7003;48821;48.796;2.396;2022-07-23T12:29:47;29.50;25.50;17.00
62778;PMS7003;48821;48.796;2.396;2022-07-23T12:30:58;31.25;27.75;19.00
62778;PMS7003;48821;48.796;2.396;2022-07-23T12:32:19;30.50;25.75;15.50
62778;PMS7003;48821;48.796;2.396;2022-07-23T12:33:34;16.75;16.75;11.75
62778;PMS7003;48821;48.796;2.396;2022-07-23T12:34:48;26.00;24.75;15.25
62778;PMS7003;48821;48.796;2.396;2022-07-23T12:36:01;26.50;24.50;17.00
62778;PMS7003;48821;48.796;2.396;2022-07-23T12:37:26;28.25;25.50;19.75
62778;PMS7003;48821;48.796;2.396;2022-07-23T12:38:39;29.50;27.00;16.25
62778;PMS7003;48821;48.796;2.396;2022-07-23T12:39:54;32.75;28.25;16.50
62778;PMS7003;48821;48.796;2.396;2022-07-23T12:41:04;36.75;31.00;20.00
62778;PMS7003;48821;48.796;2.396;2022-07-23T12:42:15;21.50;19.00;15.00
62778;PMS7003;48821;48.796;2.396;2022-07-23T12:43:30;25.50;23.75;16.25
62778;PMS7003;48821;48.796;2.396;2022-07-23T12:45:09;28.25;23.25;15.75
62778;PMS7003;48821;48.796;2.396;2022-07-23T12:46:21;26.75;23.75;16.25
62778;PMS7003;48821;48.796;2.396;2022-07-23T12:47:50;24.25;24.25;16.50
62778;PMS7003;48821;48.796;2.396;2022-07-23T12:49:08;27.25;23.50;16.25
62778;PMS7003;48821;48.796;2.396;2022-07-23T12:50:38;23.50;22.25;14.75
62778;PMS7003;48821;48.796;2.396;2022-07-23T12:51:51;27.00;24.50;16.25
62778;PMS7003;48821;48.796;2.396;2022-07-23T12:53:09;32.25;27.50;19.75
62778;PMS7003;48821;48.796;2.396;2022-07-23T12:54:27;25.25;23.00;17.00
62778;PMS7003;48821;48.796;2.396;2022-07-23T12:55:38;26.00;25.50;16.25
62778;PMS7003;48821;48.796;2.396;2022-07-23T12:56:50;28.00;25.25;17.00
62778;PMS7003;48821;48.796;2.396;2022-07-23T12:58:07;27.50;23.50;15.25
62778;PMS7003;48821;48.796;2.396;2022-07-23T12:59:18;27.00;23.75;17.00
62778;PMS7003;48821;48.796;2.396;2022-07-23T13:00:28;29.25;23.50;15.75
62778;PMS7003;48821;48.796;2.396;2022-07-23T13:01:39;22.75;19.00;15.00
62778;PMS7003;48821;48.796;2.396;2022-07-23T13:02:51;27.75;25.50;15.25
62778;PMS7003;48821;48.796;2.396;2022-07-23T13:05:12;24.25;21.00;15.25
62778;PMS7003;48821;48.796;2.396;2022-07-23T13:06:22;23.75;20.00;14.25
62778;PMS7003;48821;48.796;2.396;2022-07-23T13:07:33;26.25;23.50;16.25
62778;PMS7003;48821;48.796;2.396;2022-07-23T13:08:43;23.75;22.75;15.25
62778;PMS7003;48821;48.796;2.396;2022-07-23T13:09:53;22.50;21.75;15.25
62778;PMS7003;48821;48.796;2.396;2022-07-23T13:11:04;27.25;23.75;15.75
62778;PMS7003;48821;48.796;2.396;2022-07-23T13:12:15;25.75;24.25;16.50
62778;PMS7003;48821;48.796;2.396;2022-07-23T13:13:26;29.50;27.25;18.50
62778;PMS7003;48821;48.796;2.396;2022-07-23T13:14:38;33.00;27.75;16.75
62778;PMS7003;48821;48.796;2.396;2022-07-23T13:15:49;28.50;27.00;19.50
62778;PMS7003;48821;48.796;2.396;2022-07-23T13:17:00;29.75;24.00;16.50
62778;PMS7003;48821;48.796;2.396;2022-07-23T13:18:11;21.75;21.25;14.25
62778;PMS7003;48821;48.796;2.396;2022-07-23T13:19:21;26.00;23.75;16.50
62778;PMS7003;48821;48.796;2.396;2022-07-23T13:20:32;20.00;18.75;14.00
62778;PMS7003;48821;48.796;2.396;2022-07-23T13:21:44;25.25;22.50;16.50
62778;PMS7003;48821;48.796;2.396;2022-07-23T13:22:55;30.00;24.75;17.00
62778;PMS7003;48821;48.796;2.396;2022-07-23T13:24:06;26.25;22.25;16.00
62778;PMS7003;48821;48.796;2.396;2022-07-23T13:25:17;29.00;22.75;15.75
62778;PMS7003;48821;48.796;2.396;2022-07-23T13:26:27;20.25;16.75;13.25
62778;PMS7003;48821;48.796;2.396;2022-07-23T13:27:38;27.25;25.25;17.00
62778;PMS7003;48821;48.796;2.396;2022-07-23T13:28:48;21.75;20.25;14.00
62778;PMS7003;48821;48.796;2.396;2022-07-23T13:30:00;25.00;24.00;15.50
62778;PMS7003;48821;48.796;2.396;2022-07-23T13:31:10;26.00;25.25;18.25
62778;PMS7003;48821;48.796;2.396;2022-07-23T13:32:21;25.75;22.50;15.25